sensor_id;sensor_type;location;lat;lon;timestamp;P1;durP1;ratioP1;P2;durP2;ratioP2
59728;SDS011;45588;51.598;5.618;2022-09-09T00:01:32;2.55;;;2.25;;
59728;SDS011;45588;51.598;5.618;2022-09-09T00:04:12;2.60;;;2.00;;
59728;SDS011;45588;51.598;5.618;2022-09-09T00:06:44;3.20;;;1.75;;
59728;SDS011;45588;51.598;5.618;2022-09-09T00:09:16;3.28;;;2.28;;
59728;SDS011;45588;51.598;5.618;2022-09-09T00:12:04;2.15;;;1.63;;
59728;SDS011;45588;51.598;5.618;2022-09-09T00:14:53;2.58;;;2.35;;
59728;SDS011;45588;51.598;5.618;2022-09-09T00:17:25;3.90;;;2.13;;
59728;SDS011;45588;51.598;5.618;2022-09-09T00:20:01;5.57;;;2.35;;
59728;SDS011;45588;51.598;5.618;2022-09-09T00:22:35;4.30;;;2.00;;
59728;SDS011;45588;51.598;5.618;2022-09-09T00:25:12;3.83;;;2.53;;
59728;SDS011;45588;51.598;5.618;2022-09-09T00:27:45;3.33;;;1.45;;
59728;SDS011;45588;51.598;5.618;2022-09-09T00:32:38;4.18;;;1.70;;
59728;SDS011;45588;51.598;5.618;2022-09-09T00:40:01;3.10;;;2.17;;
59728;SDS011;45588;51.598;5.618;2022-09-09T00:45:29;4.20;;;1.92;;
59728;SDS011;45588;51.598;5.618;2022-09-09T00:47:56;1.63;;;1.52;;
59728;SDS011;45588;51.598;5.618;2022-09-09T00:50:36;2.28;;;1.95;;
59728;SDS011;45588;51.598;5.618;2022-09-09T00:56:14;9.43;;;2.15;;
59728;SDS011;45588;51.598;5.618;2022-09-09T00:59:00;4.68;;;2.63;;
59728;SDS011;45588;51.598;5.618;2022-09-09T01:04:07;3.20;;;1.83;;
59728;SDS011;45588;51.598;5.618;2022-09-09T01:06:41;2.97;;;2.25;;
59728;SDS011;45588;51.598;5.618;2022-09-09T01:09:16;4.32;;;2.97;;
59728;SDS011;45588;51.598;5.618;2022-09-09T01:12:06;8.52;;;2.28;;
59728;SDS011;45588;51.598;5.618;2022-09-09T01:14:47;3.15;;;1.83;;
59728;SDS011;45588;51.598;5.618;2022-09-09T01:17:50;3.13;;;2.60;;
59728;SDS011;45588;51.598;5.618;2022-09-09T01:23:04;3.30;;;2.30;;
59728;SDS011;45588;51.598;5.618;2022-09-09T01:26:03;3.15;;;2.28;;
59728;SDS011;45588;51.598;5.618;2022-09-09T01:28:37;2.78;;;1.77;;
59728;SDS011;45588;51.598;5.618;2022-09-09T01:31:04;2.97;;;2.13;;
59728;SDS011;45588;51.598;5.618;2022-09-09T01:33:32;3.45;;;2.30;;
59728;SDS011;45588;51.598;5.618;2022-09-09T01:36:05;1.73;;;1.42;;
59728;SDS011;45588;51.598;5.618;2022-09-09T01:38:35;7.60;;;2.05;;
59728;SDS011;45588;51.598;5.618;2022-09-09T01:41:01;3.53;;;2.35;;
59728;SDS011;45588;51.598;5.618;2022-09-09T01:43:27;6.15;;;3.40;;
59728;SDS011;45588;51.598;5.618;2022-09-09T01:45:54;5.72;;;3.20;;
59728;SDS011;45588;51.598;5.618;2022-09-09T01:48:23;10.10;;;3.22;;
59728;SDS011;45588;51.598;5.618;2022-09-09T01:50:50;4.47;;;2.90;;
59728;SDS011;45588;51.598;5.618;2022-09-09T01:53:16;3.00;;;1.98;;
59728;SDS011;45588;51.598;5.618;2022-09-09T01:55:52;4.72;;;2.22;;
59728;SDS011;45588;51.598;5.618;2022-09-09T02:04:22;3.47;;;2.33;;
59728;SDS011;45588;51.598;5.618;2022-09-09T02:06:57;6.13;;;2.03;;
59728;SDS011;45588;51.598;5.618;2022-09-09T02:09:23;9.70;;;2.63;;
59728;SDS011;45588;51.598;5.618;2022-09-09T02:11:54;9.98;;;4.38;;
59728;SDS011;45588;51.598;5.618;2022-09-09T02:14:27;9.43;;;4.50;;
59728;SDS011;45588;51.598;5.618;2022-09-09T02:16:59;5.28;;;3.33;;
59728;SDS011;45588;51.598;5.618;2022-09-09T02:19:32;6.32;;;3.60;;
59728;SDS011;45588;51.598;5.618;2022-09-09T02:22:02;6.47;;;3.53;;
59728;SDS011;45588;51.598;5.618;2022-09-09T02:24:29;9.50;;;3.90;;
59728;SDS011;45588;51.598;5.618;2022-09-09T02:26:58;7.15;;;3.72;;
59728;SDS011;45588;51.598;5.618;2022-09-09T02:29:31;6.13;;;3.60;;
59728;SDS011;45588;51.598;5.618;2022-09-09T02:32:01;8.45;;;3.45;;
59728;SDS011;45588;51.598;5.618;2022-09-09T02:34:30;8.43;;;3.87;;
59728;SDS011;45588;51.598;5.618;2022-09-09T02:36:58;7.05;;;5.97;;
59728;SDS011;45588;51.598;5.618;2022-09-09T02:39:25;11.90;;;6.85;;
59728;SDS011;45588;51.598;5.618;2022-09-09T02:41:51;4.82;;;3.40;;
59728;SDS011;45588;51.598;5.618;2022-09-09T02:44:17;4.75;;;3.38;;
59728;SDS011;45588;51.598;5.618;2022-09-09T02:49:35;5.78;;;3.75;;
59728;SDS011;45588;51.598;5.618;2022-09-09T02:52:12;6.55;;;3.22;;
59728;SDS011;45588;51.598;5.618;2022-09-09T02:54:42;6.32;;;3.53;;
59728;SDS011;45588;51.598;5.618;2022-09-09T02:57:19;8.13;;;3.63;;
59728;SDS011;45588;51.598;5.618;2022-09-09T02:59:48;8.13;;;3.47;;
59728;SDS011;45588;51.598;5.618;2022-09-09T03:02:16;10.30;;;3.03;;
59728;SDS011;45588;51.598;5.618;2022-09-09T03:04:43;3.55;;;2.30;;
59728;SDS011;45588;51.598;5.618;2022-09-09T03:07:09;5.03;;;2.55;;
59728;SDS011;45588;51.598;5.618;2022-09-09T03:09:35;11.02;;;5.38;;
59728;SDS011;45588;51.598;5.618;2022-09-09T03:12:00;11.60;;;3.30;;
59728;SDS011;45588;51.598;5.618;2022-09-09T03:14:26;5.07;;;2.70;;
59728;SDS011;45588;51.598;5.618;2022-09-09T03:16:51;5.45;;;2.50;;
59728;SDS011;45588;51.598;5.618;2022-09-09T03:19:17;7.53;;;2.85;;
59728;SDS011;45588;51.598;5.618;2022-09-09T03:21:43;4.47;;;3.92;;
59728;SDS011;45588;51.598;5.618;2022-09-09T03:24:09;5.82;;;3.33;;
59728;SDS011;45588;51.598;5.618;2022-09-09T03:26:34;5.25;;;2.88;;
59728;SDS011;45588;51.598;5.618;2022-09-09T03:29:00;6.50;;;2.78;;
59728;SDS011;45588;51.598;5.618;2022-09-09T03:31:25;6.40;;;2.55;;
59728;SDS011;45588;51.598;5.618;2022-09-09T03:33:54;8.52;;;3.97;;
59728;SDS011;45588;51.598;5.618;2022-09-09T03:36:20;6.38;;;3.28;;
59728;SDS011;45588;51.598;5.618;2022-09-09T03:38:46;7.10;;;3.58;;
59728;SDS011;45588;51.598;5.618;2022-09-09T03:41:11;5.00;;;2.47;;
59728;SDS011;45588;51.598;5.618;2022-09-09T03:43:37;6.43;;;2.55;;
59728;SDS011;45588;51.598;5.618;2022-09-09T03:46:03;9.93;;;4.25;;
59728;SDS011;45588;51.598;5.618;2022-09-09T03:48:28;10.90;;;3.95;;
59728;SDS011;45588;51.598;5.618;2022-09-09T03:50:54;7.70;;;2.65;;
59728;SDS011;45588;51.598;5.618;2022-09-09T03:53:25;7.68;;;3.80;;
59728;SDS011;45588;51.598;5.618;2022-09-09T03:55:52;6.68;;;3.58;;
59728;SDS011;45588;51.598;5.618;2022-09-09T03:58:20;5.32;;;2.55;;
59728;SDS011;45588;51.598;5.618;2022-09-09T04:00:53;7.90;;;2.63;;
59728;SDS011;45588;51.598;5.618;2022-09-09T04:03:22;5.90;;;3.38;;
59728;SDS011;45588;51.598;5.618;2022-09-09T04:05:49;15.52;;;3.53;;
59728;SDS011;45588;51.598;5.618;2022-09-09T04:08:16;8.60;;;4.03;;
59728;SDS011;45588;51.598;5.618;2022-09-09T04:10:41;3.63;;;2.20;;
59728;SDS011;45588;51.598;5.618;2022-09-09T04:13:06;7.57;;;2.95;;
59728;SDS011;45588;51.598;5.618;2022-09-09T04:15:32;11.90;;;4.63;;
59728;SDS011;45588;51.598;5.618;2022-09-09T04:17:58;7.00;;;4.35;;
59728;SDS011;45588;51.598;5.618;2022-09-09T04:20:23;8.98;;;2.92;;
59728;SDS011;45588;51.598;5.618;2022-09-09T04:22:49;11.13;;;4.65;;
59728;SDS011;45588;51.598;5.618;2022-09-09T04:25:14;7.93;;;3.40;;
59728;SDS011;45588;51.598;5.618;2022-09-09T04:27:39;8.13;;;4.63;;
59728;SDS011;45588;51.598;5.618;2022-09-09T04:30:05;10.95;;;3.20;;
59728;SDS011;45588;51.598;5.618;2022-09-09T04:32:32;14.13;;;4.03;;
59728;SDS011;45588;51.598;5.618;2022-09-09T04:34:58;7.97;;;3.35;;
59728;SDS011;45588;51.598;5.618;2022-09-09T04:37:23;8.25;;;3.63;;
59728;SDS011;45588;51.598;5.618;2022-09-09T04:39:49;4.78;;;2.60;;
59728;SDS011;45588;51.598;5.618;2022-09-09T04:42:15;13.15;;;3.67;;
59728;SDS011;45588;51.598;5.618;2022-09-09T04:44:41;6.80;;;3.65;;
59728;SDS011;45588;51.598;5.618;2022-09-09T04:47:06;7.50;;;3.65;;
59728;SDS011;45588;51.598;5.618;2022-09-09T04:49:31;8.93;;;4.35;;
59728;SDS011;45588;51.598;5.618;2022-09-09T04:51:57;9.68;;;3.47;;
59728;SDS011;45588;51.598;5.618;2022-09-09T04:54:22;5.45;;;3.13;;
59728;SDS011;45588;51.598;5.618;2022-09-09T04:56:47;6.28;;;2.88;;
59728;SDS011;45588;51.598;5.618;2022-09-09T04:59:15;6.38;;;3.15;;
59728;SDS011;45588;51.598;5.618;2022-09-09T05:01:41;4.72;;;2.33;;
59728;SDS011;45588;51.598;5.618;2022-09-09T05:04:07;11.65;;;4.80;;
59728;SDS011;45588;51.598;5.618;2022-09-09T05:06:33;7.65;;;3.25;;
59728;SDS011;45588;51.598;5.618;2022-09-09T05:08:58;5.70;;;3.92;;
59728;SDS011;45588;51.598;5.618;2022-09-09T05:11:26;8.88;;;4.30;;
59728;SDS011;45588;51.598;5.618;2022-09-09T05:13:53;11.50;;;4.03;;
59728;SDS011;45588;51.598;5.618;2022-09-09T05:16:19;7.90;;;2.75;;
59728;SDS011;45588;51.598;5.618;2022-09-09T05:18:45;4.15;;;2.67;;
59728;SDS011;45588;51.598;5.618;2022-09-09T05:21:11;8.70;;;3.83;;
59728;SDS011;45588;51.598;5.618;2022-09-09T05:23:38;11.52;;;3.40;;
59728;SDS011;45588;51.598;5.618;2022-09-09T05:26:04;8.35;;;3.13;;
59728;SDS011;45588;51.598;5.618;2022-09-09T05:28:30;11.23;;;3.85;;
59728;SDS011;45588;51.598;5.618;2022-09-09T05:30:59;7.45;;;4.25;;
59728;SDS011;45588;51.598;5.618;2022-09-09T05:33:28;12.52;;;4.43;;
59728;SDS011;45588;51.598;5.618;2022-09-09T05:35:55;8.73;;;2.67;;
59728;SDS011;45588;51.598;5.618;2022-09-09T05:38:21;14.55;;;4.38;;
59728;SDS011;45588;51.598;5.618;2022-09-09T05:40:49;12.05;;;3.95;;
59728;SDS011;45588;51.598;5.618;2022-09-09T05:43:15;13.52;;;4.53;;
59728;SDS011;45588;51.598;5.618;2022-09-09T05:45:40;11.75;;;3.85;;
59728;SDS011;45588;51.598;5.618;2022-09-09T05:48:05;5.15;;;2.40;;
59728;SDS011;45588;51.598;5.618;2022-09-09T05:50:30;15.93;;;4.25;;
59728;SDS011;45588;51.598;5.618;2022-09-09T05:52:56;7.38;;;3.72;;
59728;SDS011;45588;51.598;5.618;2022-09-09T05:55:21;8.05;;;3.08;;
59728;SDS011;45588;51.598;5.618;2022-09-09T05:57:49;11.77;;;3.78;;
59728;SDS011;45588;51.598;5.618;2022-09-09T06:00:16;11.88;;;2.95;;
59728;SDS011;45588;51.598;5.618;2022-09-09T06:02:42;8.82;;;3.83;;
59728;SDS011;45588;51.598;5.618;2022-09-09T06:05:07;10.02;;;3.67;;
59728;SDS011;45588;51.598;5.618;2022-09-09T06:07:33;11.25;;;4.30;;
59728;SDS011;45588;51.598;5.618;2022-09-09T06:09:58;16.17;;;4.00;;
59728;SDS011;45588;51.598;5.618;2022-09-09T06:12:25;14.38;;;3.35;;
59728;SDS011;45588;51.598;5.618;2022-09-09T06:14:51;10.32;;;3.75;;
59728;SDS011;45588;51.598;5.618;2022-09-09T06:17:16;10.27;;;3.88;;
59728;SDS011;45588;51.598;5.618;2022-09-09T06:19:42;9.45;;;3.22;;
59728;SDS011;45588;51.598;5.618;2022-09-09T06:22:07;11.18;;;3.30;;
59728;SDS011;45588;51.598;5.618;2022-09-09T06:24:34;9.63;;;2.83;;
59728;SDS011;45588;51.598;5.618;2022-09-09T06:26:59;12.65;;;4.88;;
59728;SDS011;45588;51.598;5.618;2022-09-09T06:29:25;12.90;;;4.30;;
59728;SDS011;45588;51.598;5.618;2022-09-09T06:31:50;11.65;;;3.88;;
59728;SDS011;45588;51.598;5.618;2022-09-09T06:34:15;6.80;;;3.55;;
59728;SDS011;45588;51.598;5.618;2022-09-09T06:36:41;9.95;;;3.58;;
59728;SDS011;45588;51.598;5.618;2022-09-09T06:39:06;9.52;;;3.85;;
59728;SDS011;45588;51.598;5.618;2022-09-09T06:41:33;11.27;;;3.75;;
59728;SDS011;45588;51.598;5.618;2022-09-09T06:43:59;8.80;;;3.83;;
59728;SDS011;45588;51.598;5.618;2022-09-09T06:46:26;7.82;;;3.35;;
59728;SDS011;45588;51.598;5.618;2022-09-09T06:48:53;9.82;;;4.07;;
59728;SDS011;45588;51.598;5.618;2022-09-09T06:53:51;10.75;;;3.88;;
59728;SDS011;45588;51.598;5.618;2022-09-09T06:56:22;11.60;;;4.53;;
59728;SDS011;45588;51.598;5.618;2022-09-09T06:58:53;10.18;;;5.18;;
59728;SDS011;45588;51.598;5.618;2022-09-09T07:01:20;15.25;;;4.30;;
59728;SDS011;45588;51.598;5.618;2022-09-09T07:03:50;7.05;;;3.15;;
59728;SDS011;45588;51.598;5.618;2022-09-09T07:08:47;12.82;;;3.72;;
59728;SDS011;45588;51.598;5.618;2022-09-09T07:11:13;12.48;;;4.03;;
59728;SDS011;45588;51.598;5.618;2022-09-09T07:13:39;9.93;;;4.00;;
59728;SDS011;45588;51.598;5.618;2022-09-09T07:16:05;10.20;;;3.33;;
59728;SDS011;45588;51.598;5.618;2022-09-09T07:18:35;9.07;;;3.90;;
59728;SDS011;45588;51.598;5.618;2022-09-09T07:21:00;10.25;;;3.47;;
59728;SDS011;45588;51.598;5.618;2022-09-09T07:23:27;9.27;;;3.42;;
59728;SDS011;45588;51.598;5.618;2022-09-09T07:25:53;8.65;;;3.45;;
59728;SDS011;45588;51.598;5.618;2022-09-09T07:28:19;10.52;;;3.55;;
59728;SDS011;45588;51.598;5.618;2022-09-09T07:30:55;10.27;;;3.55;;
59728;SDS011;45588;51.598;5.618;2022-09-09T07:33:21;8.82;;;3.30;;
59728;SDS011;45588;51.598;5.618;2022-09-09T07:35:47;12.27;;;3.47;;
59728;SDS011;45588;51.598;5.618;2022-09-09T07:38:12;10.05;;;2.72;;
59728;SDS011;45588;51.598;5.618;2022-09-09T07:40:37;4.75;;;2.35;;
59728;SDS011;45588;51.598;5.618;2022-09-09T07:43:04;9.75;;;3.15;;
59728;SDS011;45588;51.598;5.618;2022-09-09T07:45:29;10.82;;;2.92;;
59728;SDS011;45588;51.598;5.618;2022-09-09T07:47:57;10.00;;;2.92;;
59728;SDS011;45588;51.598;5.618;2022-09-09T07:50:23;10.73;;;3.10;;
59728;SDS011;45588;51.598;5.618;2022-09-09T07:52:48;9.95;;;2.85;;
59728;SDS011;45588;51.598;5.618;2022-09-09T07:55:14;11.27;;;2.92;;
59728;SDS011;45588;51.598;5.618;2022-09-09T07:57:40;9.00;;;2.55;;
59728;SDS011;45588;51.598;5.618;2022-09-09T08:00:05;10.18;;;3.42;;
59728;SDS011;45588;51.598;5.618;2022-09-09T08:02:31;8.05;;;2.80;;
59728;SDS011;45588;51.598;5.618;2022-09-09T08:04:56;8.63;;;2.95;;
59728;SDS011;45588;51.598;5.618;2022-09-09T08:07:22;7.03;;;2.33;;
59728;SDS011;45588;51.598;5.618;2022-09-09T08:09:48;12.30;;;3.30;;
59728;SDS011;45588;51.598;5.618;2022-09-09T08:12:14;8.75;;;2.53;;
59728;SDS011;45588;51.598;5.618;2022-09-09T08:14:39;9.07;;;2.85;;
59728;SDS011;45588;51.598;5.618;2022-09-09T08:17:05;10.18;;;2.55;;
59728;SDS011;45588;51.598;5.618;2022-09-09T08:19:30;9.02;;;3.20;;
59728;SDS011;45588;51.598;5.618;2022-09-09T08:21:58;8.18;;;2.65;;
59728;SDS011;45588;51.598;5.618;2022-09-09T08:24:24;10.60;;;2.83;;
59728;SDS011;45588;51.598;5.618;2022-09-09T08:26:50;7.90;;;2.88;;
59728;SDS011;45588;51.598;5.618;2022-09-09T08:29:15;7.53;;;3.05;;
59728;SDS011;45588;51.598;5.618;2022-09-09T08:31:43;11.20;;;2.72;;
59728;SDS011;45588;51.598;5.618;2022-09-09T08:34:11;4.72;;;2.88;;
59728;SDS011;45588;51.598;5.618;2022-09-09T08:36:38;8.38;;;3.03;;
59728;SDS011;45588;51.598;5.618;2022-09-09T08:41:37;9.75;;;2.80;;
59728;SDS011;45588;51.598;5.618;2022-09-09T08:50:02;6.55;;;2.30;;
59728;SDS011;45588;51.598;5.618;2022-09-09T08:55:45;6.00;;;2.33;;
59728;SDS011;45588;51.598;5.618;2022-09-09T08:58:12;6.50;;;2.28;;
59728;SDS011;45588;51.598;5.618;2022-09-09T09:00:47;3.60;;;1.58;;
59728;SDS011;45588;51.598;5.618;2022-09-09T09:03:42;7.70;;;2.63;;
59728;SDS011;45588;51.598;5.618;2022-09-09T09:06:10;9.68;;;2.63;;
59728;SDS011;45588;51.598;5.618;2022-09-09T09:09:02;10.35;;;2.65;;
59728;SDS011;45588;51.598;5.618;2022-09-09T09:11:37;10.85;;;3.13;;
59728;SDS011;45588;51.598;5.618;2022-09-09T09:14:08;7.18;;;2.60;;
59728;SDS011;45588;51.598;5.618;2022-09-09T09:16:48;8.23;;;3.08;;
59728;SDS011;45588;51.598;5.618;2022-09-09T09:19:17;8.98;;;3.10;;
59728;SDS011;45588;51.598;5.618;2022-09-09T09:21:44;8.60;;;2.97;;
59728;SDS011;45588;51.598;5.618;2022-09-09T09:27:00;8.55;;;2.53;;
59728;SDS011;45588;51.598;5.618;2022-09-09T09:29:36;10.40;;;2.75;;
59728;SDS011;45588;51.598;5.618;2022-09-09T09:32:04;9.25;;;2.60;;
59728;SDS011;45588;51.598;5.618;2022-09-09T09:34:35;8.60;;;2.20;;
59728;SDS011;45588;51.598;5.618;2022-09-09T09:37:00;12.55;;;2.83;;
59728;SDS011;45588;51.598;5.618;2022-09-09T09:39:30;10.00;;;2.17;;
59728;SDS011;45588;51.598;5.618;2022-09-09T09:42:07;9.32;;;3.17;;
59728;SDS011;45588;51.598;5.618;2022-09-09T09:44:36;8.30;;;2.53;;
59728;SDS011;45588;51.598;5.618;2022-09-09T09:47:08;9.48;;;2.42;;
59728;SDS011;45588;51.598;5.618;2022-09-09T09:49:37;9.10;;;2.30;;
59728;SDS011;45588;51.598;5.618;2022-09-09T09:52:03;7.97;;;2.47;;
59728;SDS011;45588;51.598;5.618;2022-09-09T09:54:30;8.57;;;2.50;;
59728;SDS011;45588;51.598;5.618;2022-09-09T09:57:11;8.57;;;2.42;;
59728;SDS011;45588;51.598;5.618;2022-09-09T09:59:38;10.02;;;2.58;;
59728;SDS011;45588;51.598;5.618;2022-09-09T10:02:13;5.70;;;2.17;;
59728;SDS011;45588;51.598;5.618;2022-09-09T10:04:39;9.45;;;2.80;;
59728;SDS011;45588;51.598;5.618;2022-09-09T10:07:10;9.93;;;3.00;;
59728;SDS011;45588;51.598;5.618;2022-09-09T10:09:36;6.90;;;2.13;;
59728;SDS011;45588;51.598;5.618;2022-09-09T10:12:08;8.55;;;2.25;;
59728;SDS011;45588;51.598;5.618;2022-09-09T10:23:46;9.18;;;2.33;;
59728;SDS011;45588;51.598;5.618;2022-09-09T10:29:11;6.57;;;2.25;;
59728;SDS011;45588;51.598;5.618;2022-09-09T10:34:20;6.80;;;2.47;;
59728;SDS011;45588;51.598;5.618;2022-09-09T10:36:52;10.37;;;2.60;;
59728;SDS011;45588;51.598;5.618;2022-09-09T10:42:12;12.80;;;1.90;;
59728;SDS011;45588;51.598;5.618;2022-09-09T10:47:20;6.80;;;2.67;;
59728;SDS011;45588;51.598;5.618;2022-09-09T10:52:32;14.75;;;4.00;;
59728;SDS011;45588;51.598;5.618;2022-09-09T10:57:51;7.78;;;2.70;;
59728;SDS011;45588;51.598;5.618;2022-09-09T11:00:22;10.35;;;3.35;;
59728;SDS011;45588;51.598;5.618;2022-09-09T11:03:01;8.98;;;3.22;;
59728;SDS011;45588;51.598;5.618;2022-09-09T11:08:01;13.52;;;3.78;;
59728;SDS011;45588;51.598;5.618;2022-09-09T11:10:40;10.10;;;3.40;;
59728;SDS011;45588;51.598;5.618;2022-09-09T11:22:08;9.18;;;2.78;;
59728;SDS011;45588;51.598;5.618;2022-09-09T11:30:19;6.55;;;2.33;;
59728;SDS011;45588;51.598;5.618;2022-09-09T11:32:59;7.20;;;2.35;;
59728;SDS011;45588;51.598;5.618;2022-09-09T11:40:43;8.00;;;2.45;;
59728;SDS011;45588;51.598;5.618;2022-09-09T11:45:42;8.10;;;2.53;;
59728;SDS011;45588;51.598;5.618;2022-09-09T11:51:07;3.25;;;2.50;;
59728;SDS011;45588;51.598;5.618;2022-09-09T11:53:46;5.72;;;2.97;;
59728;SDS011;45588;51.598;5.618;2022-09-09T11:56:23;5.13;;;2.63;;
59728;SDS011;45588;51.598;5.618;2022-09-09T12:01:29;4.63;;;2.20;;
59728;SDS011;45588;51.598;5.618;2022-09-09T12:06:41;4.50;;;2.13;;
59728;SDS011;45588;51.598;5.618;2022-09-09T12:09:17;5.55;;;2.17;;
59728;SDS011;45588;51.598;5.618;2022-09-09T12:11:48;4.93;;;2.65;;
59728;SDS011;45588;51.598;5.618;2022-09-09T12:17:09;7.25;;;2.60;;
59728;SDS011;45588;51.598;5.618;2022-09-09T12:19:43;2.10;;;1.70;;
59728;SDS011;45588;51.598;5.618;2022-09-09T12:22:15;3.97;;;2.55;;
59728;SDS011;45588;51.598;5.618;2022-09-09T12:25:03;8.95;;;3.30;;
59728;SDS011;45588;51.598;5.618;2022-09-09T12:27:43;6.55;;;3.38;;
59728;SDS011;45588;51.598;5.618;2022-09-09T12:30:18;7.18;;;3.08;;
59728;SDS011;45588;51.598;5.618;2022-09-09T12:32:45;5.50;;;3.03;;
59728;SDS011;45588;51.598;5.618;2022-09-09T12:35:18;6.53;;;2.72;;
59728;SDS011;45588;51.598;5.618;2022-09-09T12:37:50;7.45;;;3.08;;
59728;SDS011;45588;51.598;5.618;2022-09-09T12:42:51;4.57;;;2.50;;
59728;SDS011;45588;51.598;5.618;2022-09-09T12:45:23;7.65;;;2.63;;
59728;SDS011;45588;51.598;5.618;2022-09-09T12:47:54;6.20;;;2.75;;
59728;SDS011;45588;51.598;5.618;2022-09-09T12:50:29;4.32;;;2.53;;
59728;SDS011;45588;51.598;5.618;2022-09-09T12:53:10;4.85;;;2.55;;
59728;SDS011;45588;51.598;5.618;2022-09-09T12:55:48;5.13;;;2.47;;
59728;SDS011;45588;51.598;5.618;2022-09-09T12:58:17;4.78;;;2.00;;
59728;SDS011;45588;51.598;5.618;2022-09-09T13:00:51;6.22;;;3.05;;
59728;SDS011;45588;51.598;5.618;2022-09-09T13:03:18;7.63;;;2.72;;
59728;SDS011;45588;51.598;5.618;2022-09-09T13:05:46;7.05;;;3.20;;
59728;SDS011;45588;51.598;5.618;2022-09-09T13:08:12;5.55;;;2.33;;
59728;SDS011;45588;51.598;5.618;2022-09-09T13:10:43;5.78;;;2.45;;
59728;SDS011;45588;51.598;5.618;2022-09-09T13:13:21;9.35;;;3.38;;
59728;SDS011;45588;51.598;5.618;2022-09-09T13:15:57;6.28;;;2.22;;
59728;SDS011;45588;51.598;5.618;2022-09-09T13:18:29;8.52;;;3.20;;
59728;SDS011;45588;51.598;5.618;2022-09-09T13:20:57;12.02;;;3.35;;
59728;SDS011;45588;51.598;5.618;2022-09-09T13:23:25;12.15;;;3.38;;
59728;SDS011;45588;51.598;5.618;2022-09-09T13:25:53;12.25;;;4.00;;
59728;SDS011;45588;51.598;5.618;2022-09-09T13:28:21;11.75;;;3.00;;
59728;SDS011;45588;51.598;5.618;2022-09-09T13:30:59;6.50;;;2.78;;
59728;SDS011;45588;51.598;5.618;2022-09-09T13:36:08;7.65;;;3.55;;
59728;SDS011;45588;51.598;5.618;2022-09-09T13:38:36;9.02;;;3.25;;
59728;SDS011;45588;51.598;5.618;2022-09-09T13:41:06;7.97;;;3.15;;
59728;SDS011;45588;51.598;5.618;2022-09-09T13:43:38;6.05;;;2.92;;
59728;SDS011;45588;51.598;5.618;2022-09-09T13:48:58;6.32;;;3.45;;
59728;SDS011;45588;51.598;5.618;2022-09-09T13:51:44;7.87;;;3.40;;
59728;SDS011;45588;51.598;5.618;2022-09-09T13:54:12;4.13;;;2.72;;
59728;SDS011;45588;51.598;5.618;2022-09-09T13:56:39;6.80;;;2.60;;
59728;SDS011;45588;51.598;5.618;2022-09-09T13:59:08;7.30;;;2.67;;
59728;SDS011;45588;51.598;5.618;2022-09-09T14:01:36;5.85;;;1.98;;
59728;SDS011;45588;51.598;5.618;2022-09-09T14:04:02;4.20;;;2.38;;
59728;SDS011;45588;51.598;5.618;2022-09-09T14:06:28;5.25;;;2.20;;
59728;SDS011;45588;51.598;5.618;2022-09-09T14:08:54;5.10;;;2.10;;
59728;SDS011;45588;51.598;5.618;2022-09-09T14:11:19;4.22;;;2.25;;
59728;SDS011;45588;51.598;5.618;2022-09-09T14:13:46;7.55;;;2.58;;
59728;SDS011;45588;51.598;5.618;2022-09-09T14:16:11;7.53;;;2.10;;
59728;SDS011;45588;51.598;5.618;2022-09-09T14:18:37;7.22;;;2.38;;
59728;SDS011;45588;51.598;5.618;2022-09-09T14:21:03;4.53;;;2.05;;
59728;SDS011;45588;51.598;5.618;2022-09-09T14:23:29;6.57;;;1.73;;
59728;SDS011;45588;51.598;5.618;2022-09-09T14:25:55;6.53;;;2.00;;
59728;SDS011;45588;51.598;5.618;2022-09-09T14:28:20;4.82;;;2.40;;
59728;SDS011;45588;51.598;5.618;2022-09-09T14:30:46;6.45;;;2.13;;
59728;SDS011;45588;51.598;5.618;2022-09-09T14:33:12;3.70;;;1.67;;
59728;SDS011;45588;51.598;5.618;2022-09-09T14:35:39;6.32;;;2.30;;
59728;SDS011;45588;51.598;5.618;2022-09-09T14:38:06;5.85;;;2.30;;
59728;SDS011;45588;51.598;5.618;2022-09-09T14:40:33;6.03;;;2.78;;
59728;SDS011;45588;51.598;5.618;2022-09-09T14:43:00;8.15;;;2.58;;
59728;SDS011;45588;51.598;5.618;2022-09-09T14:45:25;6.35;;;2.50;;
59728;SDS011;45588;51.598;5.618;2022-09-09T14:47:51;5.70;;;2.15;;
59728;SDS011;45588;51.598;5.618;2022-09-09T14:50:17;7.22;;;2.05;;
59728;SDS011;45588;51.598;5.618;2022-09-09T14:52:43;3.63;;;1.67;;
59728;SDS011;45588;51.598;5.618;2022-09-09T14:55:09;4.22;;;2.20;;
59728;SDS011;45588;51.598;5.618;2022-09-09T14:57:34;4.55;;;1.55;;
59728;SDS011;45588;51.598;5.618;2022-09-09T15:00:01;3.67;;;1.67;;
59728;SDS011;45588;51.598;5.618;2022-09-09T15:02:28;3.88;;;1.90;;
59728;SDS011;45588;51.598;5.618;2022-09-09T15:04:54;6.10;;;2.08;;
59728;SDS011;45588;51.598;5.618;2022-09-09T15:07:22;5.80;;;2.38;;
59728;SDS011;45588;51.598;5.618;2022-09-09T15:09:48;6.47;;;1.58;;
59728;SDS011;45588;51.598;5.618;2022-09-09T15:12:13;4.53;;;1.65;;
59728;SDS011;45588;51.598;5.618;2022-09-09T15:14:39;4.60;;;1.80;;
59728;SDS011;45588;51.598;5.618;2022-09-09T15:17:04;3.15;;;1.70;;
59728;SDS011;45588;51.598;5.618;2022-09-09T15:19:29;7.18;;;2.10;;
59728;SDS011;45588;51.598;5.618;2022-09-09T15:21:55;4.55;;;1.83;;
59728;SDS011;45588;51.598;5.618;2022-09-09T15:24:20;4.97;;;2.28;;
59728;SDS011;45588;51.598;5.618;2022-09-09T15:26:46;5.30;;;1.45;;
59728;SDS011;45588;51.598;5.618;2022-09-09T15:29:11;3.67;;;1.88;;
59728;SDS011;45588;51.598;5.618;2022-09-09T15:31:37;4.68;;;1.92;;
59728;SDS011;45588;51.598;5.618;2022-09-09T15:34:03;4.85;;;1.63;;
59728;SDS011;45588;51.598;5.618;2022-09-09T15:39:00;12.68;;;2.28;;
59728;SDS011;45588;51.598;5.618;2022-09-09T15:41:26;2.10;;;1.02;;
59728;SDS011;45588;51.598;5.618;2022-09-09T15:43:54;2.35;;;0.80;;
59728;SDS011;45588;51.598;5.618;2022-09-09T15:46:35;1.42;;;0.70;;
59728;SDS011;45588;51.598;5.618;2022-09-09T15:49:12;1.70;;;1.10;;
59728;SDS011;45588;51.598;5.618;2022-09-09T15:51:47;4.05;;;1.52;;
59728;SDS011;45588;51.598;5.618;2022-09-09T15:54:23;1.92;;;1.02;;
59728;SDS011;45588;51.598;5.618;2022-09-09T15:56:53;3.35;;;1.70;;
59728;SDS011;45588;51.598;5.618;2022-09-09T16:01:49;4.18;;;1.38;;
59728;SDS011;45588;51.598;5.618;2022-09-09T16:04:18;2.03;;;1.20;;
59728;SDS011;45588;51.598;5.618;2022-09-09T16:06:53;3.60;;;1.52;;
59728;SDS011;45588;51.598;5.618;2022-09-09T16:09:26;3.50;;;1.48;;
59728;SDS011;45588;51.598;5.618;2022-09-09T16:11:52;2.13;;;1.25;;
59728;SDS011;45588;51.598;5.618;2022-09-09T16:14:18;1.67;;;1.27;;
59728;SDS011;45588;51.598;5.618;2022-09-09T16:16:44;2.33;;;1.00;;
59728;SDS011;45588;51.598;5.618;2022-09-09T16:19:10;3.58;;;1.38;;
59728;SDS011;45588;51.598;5.618;2022-09-09T16:21:41;1.90;;;1.10;;
59728;SDS011;45588;51.598;5.618;2022-09-09T16:24:09;3.65;;;2.20;;
59728;SDS011;45588;51.598;5.618;2022-09-09T16:26:37;3.40;;;2.10;;
59728;SDS011;45588;51.598;5.618;2022-09-09T16:29:05;4.22;;;1.60;;
59728;SDS011;45588;51.598;5.618;2022-09-09T16:31:30;3.90;;;1.55;;
59728;SDS011;45588;51.598;5.618;2022-09-09T16:33:57;1.90;;;1.50;;
59728;SDS011;45588;51.598;5.618;2022-09-09T16:36:23;1.85;;;1.40;;
59728;SDS011;45588;51.598;5.618;2022-09-09T16:38:54;5.88;;;2.58;;
59728;SDS011;45588;51.598;5.618;2022-09-09T16:43:47;3.92;;;2.47;;
59728;SDS011;45588;51.598;5.618;2022-09-09T16:46:18;3.10;;;2.05;;
59728;SDS011;45588;51.598;5.618;2022-09-09T16:48:44;2.63;;;1.88;;
59728;SDS011;45588;51.598;5.618;2022-09-09T16:51:15;4.22;;;2.13;;
59728;SDS011;45588;51.598;5.618;2022-09-09T16:53:52;1.55;;;1.42;;
59728;SDS011;45588;51.598;5.618;2022-09-09T16:56:29;4.70;;;2.80;;
59728;SDS011;45588;51.598;5.618;2022-09-09T16:58:58;2.92;;;2.65;;
59728;SDS011;45588;51.598;5.618;2022-09-09T17:01:25;5.28;;;3.05;;